createdAt,value
2019-05-22T00:01:00.650Z,78.51
2019-05-22T00:03:40.327Z,78.82
2019-05-22T00:06:09.589Z,78.69
2019-05-22T00:08:43.482Z,78.39
2019-05-22T00:11:13.787Z,78.25
2019-05-22T00:13:45.050Z,78.08
2019-05-22T00:16:15.248Z,77.89
2019-05-22T00:18:44.992Z,78.38
2019-05-22T00:21:15.810Z,78.42
2019-05-22T00:23:47.153Z,78.68
2019-05-22T00:26:16.857Z,78.83
2019-05-22T00:28:47.386Z,78.67
2019-05-22T00:31:18.396Z,78.30
2019-05-22T00:33:47.557Z,77.95
2019-05-22T00:36:17.826Z,77.83
2019-05-22T00:38:48.154Z,77.90
2019-05-22T00:41:19.441Z,77.86
2019-05-22T00:43:51.741Z,77.45
2019-05-22T00:46:21.317Z,77.12
2019-05-22T00:48:52.203Z,77.10
2019-05-22T00:51:29.712Z,76.85
2019-05-22T00:54:00.592Z,76.39
2019-05-22T00:56:31.463Z,76.35
2019-05-22T00:59:05.326Z,76.29
2019-05-22T01:01:38.920Z,76.06
2019-05-22T01:04:09.863Z,76.09
2019-05-22T01:06:39.645Z,76.18
2019-05-22T01:09:10.737Z,76.19
2019-05-22T01:11:41.556Z,76.16
2019-05-22T01:14:12.371Z,76.46
2019-05-22T01:16:42.889Z,76.66
2019-05-22T01:19:13.235Z,76.74
2019-05-22T01:21:42.488Z,76.73
2019-05-22T01:24:13.211Z,77.15
2019-05-22T01:26:43.758Z,77.49
2019-05-22T01:29:13.842Z,77.41
2019-05-22T01:31:44.666Z,77.44
2019-05-22T01:34:15.539Z,77.49
2019-05-22T01:36:49.276Z,77.21
2019-05-22T01:39:25.811Z,77.07
2019-05-22T01:41:57.369Z,77.12
2019-05-22T01:44:28.397Z,76.94
2019-05-22T01:47:00.627Z,76.74
2019-05-22T01:49:31.351Z,76.92
2019-05-22T01:52:01.163Z,77.25
2019-05-22T01:54:30.407Z,77.42
2019-05-22T01:57:04.761Z,77.77
2019-05-22T01:59:35.661Z,78.06
2019-05-22T02:02:06.966Z,77.60
2019-05-22T02:04:39.249Z,77.73
2019-05-22T02:07:09.483Z,77.49
2019-05-22T02:09:40.860Z,77.74
2019-05-22T02:12:17.827Z,77.63
2019-05-22T02:14:50.438Z,76.97
2019-05-22T02:17:23.942Z,76.77
2019-05-22T02:19:53.267Z,76.66
2019-05-22T02:22:23.577Z,76.51
2019-05-22T02:24:53.188Z,76.22
2019-05-22T02:27:24.119Z,76.17
2019-05-22T02:29:55.444Z,76.12
2019-05-22T02:32:25.666Z,76.06
2019-05-22T02:34:56.774Z,75.98
2019-05-22T02:37:27.209Z,75.75
2019-05-22T02:39:56.641Z,76.06
2019-05-22T02:42:29.874Z,76.12
2019-05-22T02:45:00.618Z,75.92
2019-05-22T02:47:30.443Z,75.76
2019-05-22T02:50:00.167Z,75.81
2019-05-22T02:52:29.980Z,76.20
2019-05-22T02:54:59.610Z,76.25
2019-05-22T02:57:30.630Z,76.19
2019-05-22T03:00:00.809Z,76.50
2019-05-22T03:02:32.385Z,76.74
2019-05-22T03:05:09.533Z,77.24
2019-05-22T03:07:41.353Z,77.29
2019-05-22T03:10:13.466Z,77.08
2019-05-22T03:12:45.531Z,77.23
2019-05-22T03:15:17.982Z,77.15
2019-05-22T03:17:47.830Z,76.88
2019-05-22T03:20:23.206Z,77.24
2019-05-22T03:22:58.757Z,77.26
2019-05-22T03:25:30.137Z,77.21
2019-05-22T03:27:59.851Z,77.23
2019-05-22T03:30:34.692Z,77.27
2019-05-22T03:33:07.728Z,77.27
2019-05-22T03:35:42.482Z,77.38
2019-05-22T03:38:12.271Z,77.47
2019-05-22T03:40:41.758Z,77.40
2019-05-22T03:43:15.101Z,77.20
2019-05-22T03:45:44.714Z,77.02
2019-05-22T03:48:15.218Z,76.99
2019-05-22T03:50:44.406Z,77.41
2019-05-22T03:53:19.383Z,77.31
2019-05-22T03:55:49.017Z,76.91
2019-05-22T03:58:18.866Z,76.50
2019-05-22T04:00:52.145Z,76.31
2019-05-22T04:03:21.315Z,75.85
2019-05-22T04:05:52.651Z,75.80
2019-05-22T04:08:24.117Z,75.68
2019-05-22T04:10:56.761Z,75.74
2019-05-22T04:13:25.870Z,75.77
2019-05-22T04:15:56.050Z,75.95
2019-05-22T04:18:27.359Z,75.99
2019-05-22T04:20:58.892Z,75.90
2019-05-22T04:23:28.154Z,76.06
2019-05-22T04:25:58.984Z,76.27
2019-05-22T04:28:30.168Z,76.38
2019-05-22T04:31:00.645Z,76.52
2019-05-22T04:33:30.882Z,76.62
2019-05-22T04:36:01.651Z,76.58
2019-05-22T04:38:31.346Z,76.59
2019-05-22T04:41:03.554Z,76.32
2019-05-22T04:43:34.043Z,76.13
2019-05-22T04:46:06.372Z,76.10
2019-05-22T04:48:37.870Z,76.37
2019-05-22T04:51:28.992Z,76.34
2019-05-22T04:53:58.652Z,76.16
2019-05-22T04:56:28.774Z,76.24
2019-05-22T04:58:59.340Z,76.22
2019-05-22T05:01:28.747Z,76.56
2019-05-22T05:03:58.767Z,76.64
2019-05-22T05:06:29.607Z,76.13
2019-05-22T05:08:59.127Z,76.37
2019-05-22T05:11:28.293Z,76.43
2019-05-22T05:13:57.615Z,76.44
2019-05-22T05:16:26.786Z,76.55
2019-05-22T05:18:56.059Z,76.81
2019-05-22T05:21:25.493Z,77.07
2019-05-22T05:23:55.049Z,76.95
2019-05-22T05:26:26.065Z,77.25
2019-05-22T05:28:55.706Z,77.32
2019-05-22T05:31:25.645Z,77.21
2019-05-22T05:34:00.714Z,76.83
2019-05-22T05:36:30.355Z,76.34
2019-05-22T05:39:00.178Z,76.16
2019-05-22T05:41:29.926Z,75.75
2019-05-22T05:43:59.757Z,76.02
2019-05-22T05:46:28.950Z,76.05
2019-05-22T05:48:58.231Z,76.21
2019-05-22T05:51:30.362Z,76.33
2019-05-22T05:54:06.373Z,76.10
2019-05-22T05:56:37.614Z,75.68
2019-05-22T05:59:07.543Z,75.53
2019-05-22T06:01:39.630Z,76.01
2019-05-22T06:04:09.810Z,76.13
2019-05-22T06:06:42.097Z,76.31
2019-05-22T06:09:14.628Z,76.43
2019-05-22T06:11:48.963Z,76.48
2019-05-22T06:14:28.277Z,76.12
2019-05-22T06:17:13.997Z,75.89
2019-05-22T06:19:52.351Z,76.05
2019-05-22T06:22:21.620Z,76.07
2019-05-22T06:24:57.309Z,76.14
2019-05-22T06:27:35.905Z,76.05
2019-05-22T06:30:10.149Z,75.59
2019-05-22T06:33:01.965Z,75.20
2019-05-22T06:35:35.209Z,75.21
2019-05-22T06:38:22.002Z,75.12
2019-05-22T06:40:51.450Z,75.09
2019-05-22T06:43:27.674Z,74.12
2019-05-22T06:45:57.316Z,72.95
2019-05-22T06:48:26.968Z,71.50
2019-05-22T06:50:57.328Z,70.69
2019-05-22T06:53:26.581Z,68.60
2019-05-22T06:55:55.914Z,67.53
2019-05-22T06:58:25.726Z,66.35
2019-05-22T07:00:56.220Z,65.66
2019-05-22T07:03:25.428Z,65.49
2019-05-22T07:05:54.617Z,66.38
2019-05-22T07:08:24.056Z,66.09
2019-05-22T07:11:11.591Z,65.92
2019-05-22T07:13:41.213Z,65.09
2019-05-22T07:16:11.244Z,62.48
2019-05-22T07:18:41.579Z,61.00
2019-05-22T07:21:10.938Z,62.12
2019-05-22T07:23:40.096Z,62.36
2019-05-22T07:26:10.413Z,63.73
2019-05-22T07:28:39.688Z,64.39
2019-05-22T07:31:09.171Z,62.63
2019-05-22T07:33:38.587Z,63.08
2019-05-22T07:36:12.119Z,62.83
2019-05-22T07:38:40.182Z,63.10
2019-05-22T07:41:09.445Z,62.94
2019-05-22T07:43:41.738Z,60.49
2019-05-22T07:46:09.776Z,60.24
2019-05-22T07:48:39.086Z,60.81
2019-05-22T07:51:10.100Z,62.87
2019-05-22T07:53:40.449Z,62.85
2019-05-22T07:56:10.128Z,62.61
2019-05-22T07:58:39.969Z,62.49
2019-05-22T08:01:09.559Z,62.31
2019-05-22T08:03:40.802Z,62.17
2019-05-22T08:06:10.149Z,62.02
2019-05-22T08:08:41.804Z,62.90
2019-05-22T08:11:12.229Z,63.09
2019-05-22T08:13:43.517Z,63.09
2019-05-22T08:16:13.602Z,62.62
2019-05-22T08:18:42.905Z,62.56
2019-05-22T08:21:12.187Z,62.57
2019-05-22T08:23:42.093Z,62.51
2019-05-22T08:26:12.917Z,62.10
2019-05-22T08:28:42.222Z,62.63
2019-05-22T08:31:13.041Z,62.17
2019-05-22T08:33:42.554Z,62.15
2019-05-22T08:36:11.919Z,62.24
2019-05-22T08:38:44.588Z,62.68
2019-05-22T08:41:15.948Z,62.24
2019-05-22T08:44:15.517Z,62.05
2019-05-22T08:46:17.846Z,61.59
2019-05-22T08:48:49.235Z,61.57
2019-05-22T08:51:21.457Z,61.48
2019-05-22T08:54:09.927Z,61.11
2019-05-22T08:56:41.389Z,61.77
2019-05-22T08:59:19.599Z,61.82
2019-05-22T09:01:42.403Z,61.79
2019-05-22T09:04:11.674Z,62.13
2019-05-22T09:06:41.432Z,62.19
2019-05-22T09:09:10.665Z,62.21
2019-05-22T09:11:39.840Z,62.11
2019-05-22T09:14:09.091Z,62.38
2019-05-22T09:16:38.283Z,62.95
2019-05-22T09:19:07.574Z,63.13
2019-05-22T09:21:40.569Z,63.23
2019-05-22T09:24:13.692Z,63.31
2019-05-22T09:26:42.972Z,62.77
2019-05-22T09:29:12.159Z,62.98
2019-05-22T09:31:41.754Z,63.30
2019-05-22T09:34:11.107Z,62.84
2019-05-22T09:36:40.565Z,62.73
2019-05-22T09:39:11.980Z,62.36
2019-05-22T09:41:41.307Z,62.46
2019-05-22T09:44:10.551Z,61.16
2019-05-22T09:46:39.810Z,61.46
2019-05-22T09:49:10.993Z,61.96
2019-05-22T09:51:40.203Z,61.67
2019-05-22T09:54:09.740Z,61.46
2019-05-22T09:56:38.995Z,60.79
2019-05-22T09:59:08.318Z,60.34
2019-05-22T10:01:37.509Z,59.63
2019-05-22T10:04:08.015Z,59.03
2019-05-22T10:06:37.261Z,58.83
2019-05-22T10:09:08.365Z,59.13
2019-05-22T10:11:37.916Z,60.11
2019-05-22T10:14:07.269Z,59.82
2019-05-22T10:16:37.501Z,59.40
2019-05-22T10:19:07.013Z,59.60
2019-05-22T10:21:37.032Z,59.98
2019-05-22T10:24:07.255Z,59.06
2019-05-22T10:26:36.708Z,57.51
2019-05-22T10:29:06.355Z,57.09
2019-05-22T10:31:35.607Z,55.98
2019-05-22T10:34:04.879Z,55.95
2019-05-22T10:36:34.533Z,56.63
2019-05-22T10:39:05.391Z,56.03
2019-05-22T10:41:34.663Z,55.89
2019-05-22T10:44:05.053Z,55.79
2019-05-22T10:46:34.302Z,55.03
2019-05-22T10:49:03.828Z,55.42
2019-05-22T10:51:32.998Z,56.51
2019-05-22T10:54:02.891Z,56.06
2019-05-22T10:56:32.706Z,56.36
2019-05-22T10:59:02.031Z,55.78
2019-05-22T11:01:32.024Z,56.22
2019-05-22T11:04:01.829Z,55.74
2019-05-22T11:06:31.474Z,54.90
2019-05-22T11:09:00.686Z,55.20
2019-05-22T11:11:30.313Z,55.63
2019-05-22T11:14:02.216Z,56.52
2019-05-22T11:16:32.306Z,56.57
2019-05-22T11:19:02.715Z,56.63
2019-05-22T11:21:32.973Z,56.40
2019-05-22T11:24:02.230Z,55.52
2019-05-22T11:26:32.001Z,55.45
2019-05-22T11:29:01.454Z,55.26
2019-05-22T11:31:31.149Z,54.31
2019-05-22T11:34:00.399Z,54.67
2019-05-22T11:36:29.856Z,54.55
2019-05-22T11:38:59.252Z,53.72
2019-05-22T11:41:28.505Z,53.27
2019-05-22T11:43:57.767Z,52.88
2019-05-22T11:46:27.312Z,51.57
2019-05-22T11:48:56.493Z,51.79
2019-05-22T11:51:25.858Z,52.10
2019-05-22T11:54:08.847Z,52.57
2019-05-22T11:56:26.064Z,52.71
2019-05-22T11:58:55.337Z,49.50
2019-05-22T12:01:25.362Z,47.38
2019-05-22T12:03:55.267Z,45.91
2019-05-22T12:06:25.215Z,44.91
2019-05-22T12:08:55.332Z,46.08
2019-05-22T12:11:24.687Z,44.29
2019-05-22T12:13:54.643Z,48.32
2019-05-22T12:16:24.643Z,49.96
2019-05-22T12:18:54.255Z,49.36
2019-05-22T12:21:23.524Z,48.83
2019-05-22T12:23:52.775Z,50.48
2019-05-22T12:26:23.213Z,54.10
2019-05-22T12:28:52.397Z,54.82
2019-05-22T12:31:21.652Z,55.97
2019-05-22T12:33:51.418Z,54.87
2019-05-22T12:36:21.789Z,54.23
2019-05-22T12:38:51.818Z,53.50
2019-05-22T12:41:21.263Z,52.14
2019-05-22T12:43:51.776Z,47.87
2019-05-22T12:46:22.005Z,46.74
2019-05-22T12:48:51.723Z,46.53
2019-05-22T12:51:21.555Z,49.29
2019-05-22T12:53:52.704Z,51.64
2019-05-22T12:56:22.334Z,51.92
2019-05-22T12:58:52.117Z,51.08
2019-05-22T13:01:22.063Z,51.86
2019-05-22T13:03:52.306Z,51.63
2019-05-22T13:06:21.564Z,49.52
2019-05-22T13:08:51.362Z,50.06
2019-05-22T13:11:21.102Z,51.87
2019-05-22T13:13:50.760Z,54.03
2019-05-22T13:16:20.307Z,54.26
2019-05-22T13:18:50.859Z,54.26
2019-05-22T13:21:23.110Z,54.17
2019-05-22T13:23:53.435Z,53.59
2019-05-22T13:26:24.361Z,52.88
2019-05-22T13:28:55.183Z,53.23
2019-05-22T13:31:24.684Z,53.22
2019-05-22T13:33:54.881Z,54.10
2019-05-22T13:36:24.126Z,54.63
2019-05-22T13:38:53.865Z,52.42
2019-05-22T13:41:23.113Z,53.52
2019-05-22T13:43:52.716Z,52.63
2019-05-22T13:46:21.952Z,53.46
2019-05-22T13:48:51.477Z,53.76
2019-05-22T13:51:21.321Z,51.08
2019-05-22T13:53:52.006Z,52.24
2019-05-22T13:56:25.228Z,52.15
2019-05-22T13:58:54.195Z,51.05
2019-05-22T14:01:23.993Z,50.85
2019-05-22T14:03:53.984Z,49.15
2019-05-22T14:06:24.017Z,48.85
2019-05-22T14:08:53.440Z,50.29
2019-05-22T14:11:23.407Z,51.33
2019-05-22T14:13:54.194Z,51.74
2019-05-22T14:16:23.735Z,51.58
2019-05-22T14:18:53.005Z,49.72
2019-05-22T14:21:22.286Z,49.24
2019-05-22T14:23:51.705Z,47.99
2019-05-22T14:26:20.945Z,46.38
2019-05-22T14:28:51.058Z,45.17
2019-05-22T14:31:26.309Z,43.88
2019-05-22T14:33:55.483Z,43.55
2019-05-22T14:36:24.739Z,42.97
2019-05-22T14:38:54.721Z,42.63
2019-05-22T14:41:24.212Z,42.70
2019-05-22T14:43:53.544Z,42.24
2019-05-22T14:46:22.857Z,41.69
2019-05-22T14:48:52.388Z,41.06
2019-05-22T14:51:23.280Z,40.45
2019-05-22T14:53:54.934Z,39.09
2019-05-22T14:56:25.457Z,37.95
2019-05-22T14:58:55.840Z,35.41
2019-05-22T15:01:25.309Z,35.14
2019-05-22T15:03:55.314Z,33.61
2019-05-22T15:06:24.651Z,33.15
2019-05-22T15:08:54.190Z,34.35
2019-05-22T15:11:23.940Z,35.03
2019-05-22T15:13:53.273Z,35.11
2019-05-22T15:16:22.823Z,35.77
2019-05-22T15:18:52.293Z,33.59
2019-05-22T15:21:21.906Z,33.02
2019-05-22T15:23:52.051Z,32.08
2019-05-22T15:26:21.720Z,32.66
2019-05-22T15:28:51.949Z,32.85
2019-05-22T15:31:21.412Z,33.32
2019-05-22T15:33:51.156Z,33.95
2019-05-22T15:36:22.841Z,34.65
2019-05-22T15:38:53.117Z,35.00
2019-05-22T15:41:23.552Z,35.87
2019-05-22T15:43:54.008Z,36.43
2019-05-22T15:46:24.755Z,37.16
2019-05-22T15:48:54.873Z,37.99
2019-05-22T15:51:27.134Z,38.12
2019-05-22T15:54:00.426Z,37.20
2019-05-22T15:56:31.760Z,37.99
2019-05-22T15:59:05.176Z,37.51
2019-05-22T16:01:36.847Z,37.34
2019-05-22T16:04:10.004Z,36.45
2019-05-22T16:06:39.881Z,34.56
2019-05-22T16:09:13.219Z,36.27
2019-05-22T16:11:44.216Z,35.40
2019-05-22T16:14:14.841Z,36.80
2019-05-22T16:16:45.920Z,37.02
2019-05-22T16:19:15.282Z,37.76
2019-05-22T16:21:47.307Z,38.18
2019-05-22T16:24:17.150Z,40.91
2019-05-22T16:26:46.821Z,42.16
2019-05-22T16:29:16.948Z,41.96
2019-05-22T16:31:47.280Z,42.41
2019-05-22T16:34:17.723Z,42.44
2019-05-22T16:36:47.492Z,42.21
2019-05-22T16:39:17.729Z,41.64
2019-05-22T16:41:47.335Z,41.83
2019-05-22T16:44:17.259Z,40.47
2019-05-22T16:46:46.941Z,38.72
2019-05-22T16:49:17.784Z,40.48
2019-05-22T16:51:48.626Z,40.46
2019-05-22T16:54:20.912Z,40.53
2019-05-22T16:56:49.690Z,41.82
2019-05-22T16:59:20.505Z,40.09
2019-05-22T17:02:00.088Z,42.22
2019-05-22T17:04:21.229Z,42.93
2019-05-22T17:06:51.330Z,43.57
2019-05-22T17:09:21.780Z,43.42
2019-05-22T17:11:52.522Z,42.52
2019-05-22T17:14:23.669Z,41.99
2019-05-22T17:16:53.099Z,42.96
2019-05-22T17:19:27.406Z,41.76
2019-05-22T17:21:54.542Z,42.46
2019-05-22T17:24:24.960Z,42.24
2019-05-22T17:26:56.167Z,42.04
2019-05-22T17:29:27.352Z,41.04
2019-05-22T17:31:56.868Z,39.94
2019-05-22T17:34:35.052Z,42.13
2019-05-22T17:37:08.315Z,44.59
2019-05-22T17:39:40.923Z,44.73
2019-05-22T17:42:13.574Z,45.19
2019-05-22T17:44:46.177Z,45.70
2019-05-22T17:47:17.536Z,45.88
2019-05-22T17:49:46.968Z,45.30
2019-05-22T17:52:17.891Z,44.80
2019-05-22T17:54:51.089Z,43.30
2019-05-22T17:57:22.274Z,43.44
2019-05-22T17:59:52.678Z,41.69
2019-05-22T18:02:23.675Z,42.21
2019-05-22T18:04:52.914Z,41.97
2019-05-22T18:07:22.768Z,42.96
2019-05-22T18:09:51.938Z,45.85
2019-05-22T18:12:22.013Z,45.16
2019-05-22T18:14:51.196Z,46.33
2019-05-22T18:17:20.457Z,46.87
2019-05-22T18:19:49.779Z,47.22
2019-05-22T18:22:19.869Z,47.35
2019-05-22T18:24:49.682Z,45.67
2019-05-22T18:27:19.009Z,44.97
2019-05-22T18:29:48.206Z,45.44
2019-05-22T18:32:17.659Z,44.75
2019-05-22T18:34:46.909Z,43.74
2019-05-22T18:37:16.096Z,43.95
2019-05-22T18:39:45.275Z,44.32
2019-05-22T18:42:14.630Z,44.57
2019-05-22T18:44:43.814Z,44.24
2019-05-22T18:47:13.271Z,44.18
2019-05-22T18:49:42.469Z,44.34
2019-05-22T18:52:11.654Z,44.36
2019-05-22T18:54:40.841Z,44.06
2019-05-22T18:57:10.491Z,43.77
2019-05-22T18:59:39.938Z,43.39
2019-05-22T19:02:09.608Z,43.52
2019-05-22T19:04:44.693Z,43.46
2019-05-22T19:07:14.159Z,43.30
2019-05-22T19:09:43.406Z,43.43
2019-05-22T19:12:12.658Z,42.63
2019-05-22T19:14:41.840Z,42.78
2019-05-22T19:17:11.378Z,42.86
2019-05-22T19:19:40.665Z,42.83
2019-05-22T19:22:09.842Z,42.31
2019-05-22T19:24:39.012Z,42.80
2019-05-22T19:27:08.192Z,42.85
2019-05-22T19:29:37.752Z,43.46
2019-05-22T19:32:07.016Z,43.62
2019-05-22T19:34:36.356Z,44.09
2019-05-22T19:37:05.612Z,44.74
2019-05-22T19:39:36.794Z,44.97
2019-05-22T19:42:07.741Z,45.00
2019-05-22T19:44:37.027Z,45.30
2019-05-22T19:47:07.728Z,45.28
2019-05-22T19:49:37.076Z,45.22
2019-05-22T19:52:07.493Z,45.24
2019-05-22T19:54:36.805Z,45.38
2019-05-22T19:57:06.348Z,45.51
2019-05-22T19:59:35.530Z,45.79
2019-05-22T20:02:05.532Z,45.89
2019-05-22T20:04:35.424Z,46.12
2019-05-22T20:07:07.054Z,46.45
2019-05-22T20:09:36.704Z,46.57
2019-05-22T20:12:07.376Z,46.72
2019-05-22T20:14:37.272Z,46.96
2019-05-22T20:17:06.448Z,47.06
2019-05-22T20:19:36.894Z,47.29
2019-05-22T20:22:06.552Z,47.25
2019-05-22T20:24:36.071Z,47.31
2019-05-22T20:27:09.374Z,47.71
2019-05-22T20:29:36.887Z,47.31
2019-05-22T20:32:07.818Z,47.68
2019-05-22T20:34:37.238Z,47.88
2019-05-22T20:37:06.691Z,48.07
2019-05-22T20:39:38.517Z,47.93
2019-05-22T20:42:09.122Z,47.81
2019-05-22T20:44:39.112Z,47.32
2019-05-22T20:47:10.702Z,47.81
2019-05-22T20:49:42.219Z,48.18
2019-05-22T20:52:12.891Z,48.58
2019-05-22T20:54:43.307Z,48.86
2019-05-22T20:57:12.849Z,48.39
2019-05-22T20:59:44.172Z,48.33
2019-05-22T21:02:14.960Z,48.12
2019-05-22T21:04:46.649Z,48.22
2019-05-22T21:07:18.871Z,47.74
2019-05-22T21:09:48.123Z,47.99
2019-05-22T21:12:19.025Z,47.60
2019-05-22T21:14:48.212Z,47.77
2019-05-22T21:17:19.088Z,48.24
2019-05-22T21:19:48.845Z,48.30
2019-05-22T21:22:19.657Z,48.60
2019-05-22T21:24:49.773Z,48.77
2019-05-22T21:27:19.001Z,48.99
2019-05-22T21:29:48.176Z,49.10
2019-05-22T21:32:19.045Z,48.90
2019-05-22T21:34:48.313Z,49.19
2019-05-22T21:37:18.706Z,49.22
2019-05-22T21:39:48.421Z,49.36
2019-05-22T21:42:18.071Z,49.28
2019-05-22T21:44:47.278Z,49.35
2019-05-22T21:47:16.425Z,49.25
2019-05-22T21:49:45.682Z,49.11
2019-05-22T21:52:15.740Z,48.79
2019-05-22T21:54:46.410Z,49.24
2019-05-22T21:57:17.139Z,49.30
2019-05-22T21:59:46.311Z,49.72
2019-05-22T22:02:20.177Z,50.27
2019-05-22T22:04:50.286Z,50.33
2019-05-22T22:07:21.146Z,50.42
2019-05-22T22:09:50.985Z,50.51
2019-05-22T22:12:23.242Z,50.26
2019-05-22T22:14:52.593Z,50.41
2019-05-22T22:17:23.813Z,50.90
2019-05-22T22:19:53.956Z,51.00
2019-05-22T22:22:27.010Z,51.31
2019-05-22T22:24:56.399Z,51.51
2019-05-22T22:27:25.906Z,51.76
2019-05-22T22:29:55.730Z,51.82
2019-05-22T22:32:26.543Z,52.00
2019-05-22T22:34:55.717Z,52.39
2019-05-22T22:37:26.422Z,52.25
2019-05-22T22:39:56.855Z,52.19
2019-05-22T22:42:41.594Z,52.20
2019-05-22T22:45:24.451Z,52.23
2019-05-22T22:47:54.890Z,51.94
2019-05-22T22:50:25.940Z,51.53
2019-05-22T22:52:58.386Z,51.85
2019-05-22T22:55:29.826Z,51.50
2019-05-22T22:58:16.031Z,50.82
2019-05-22T23:00:34.110Z,50.69
2019-05-22T23:03:04.249Z,50.77
2019-05-22T23:05:35.543Z,50.70
2019-05-22T23:08:06.023Z,50.77
2019-05-22T23:10:35.360Z,50.61
2019-05-22T23:13:06.995Z,50.70
2019-05-22T23:15:37.840Z,50.44
2019-05-22T23:18:41.263Z,50.57
2019-05-22T23:21:09.363Z,50.88
2019-05-22T23:23:37.750Z,50.81
2019-05-22T23:26:08.634Z,51.06
2019-05-22T23:28:40.735Z,51.39
2019-05-22T23:31:11.646Z,51.19
2019-05-22T23:33:40.991Z,51.26
2019-05-22T23:36:12.053Z,51.65
2019-05-22T23:38:43.003Z,51.87
2019-05-22T23:41:13.803Z,51.91
2019-05-22T23:43:44.790Z,52.23
2019-05-22T23:46:14.713Z,51.86
2019-05-22T23:48:44.833Z,52.05
2019-05-22T23:51:14.145Z,51.83
2019-05-22T23:53:45.223Z,51.95
2019-05-22T23:56:16.269Z,52.24
2019-05-22T23:58:52.643Z,52.02
